Time;durP1;ratioP1;P1;durP2;ratioP2;P2;SDS_P1;SDS_P2;PMS_P1;PMS_P2;Temp;Humidity;BMP_temperature;BMP_pressure;BME280_temperature;BME280_humidity;BME280_pressure;Samples;Min_cycle;Max_cycle;Signal;HPM_P1;HPM_P2
2024/01/11 00:00:11;;;;;;;13.17;7.67;;;;;;;-4.89;100.00;102936.19;2079019;28;20190;-76
2024/01/11 00:01:11;;;;;;;12.97;6.83;;;;;;;-4.87;100.00;102923.25;2076740;28;20192;-75
2024/01/11 00:02:12;;;;;;;13.43;6.83;;;;;;;-4.88;100.00;102925.13;2078034;28;20372;-75
2024/01/11 00:03:12;;;;;;;12.10;7.17;;;;;;;-4.89;100.00;102930.78;2077510;28;20638;-75
2024/01/11 00:04:13;;;;;;;11.30;6.73;;;;;;;-5.49;100.00;102860.63;2077993;28;20275;-75
2024/01/11 00:05:14;;;;;;;17.47;10.63;;;;;;;-5.46;100.00;102833.03;2076913;28;20212;-78
2024/01/11 00:06:14;;;;;;;18.60;10.50;;;;;;;-4.90;100.00;102935.41;2079592;28;20185;-75
2024/01/11 00:07:15;;;;;;;12.20;7.80;;;;;;;-5.00;100.00;102899.44;2076855;28;20197;-75
2024/01/11 00:08:15;;;;;;;12.57;7.10;;;;;;;-5.05;100.00;102905.69;2078120;28;20216;-75
2024/01/11 00:09:16;;;;;;;14.87;8.23;;;;;;;-4.86;100.00;102922.16;2078001;28;20247;-75
2024/01/11 00:10:17;;;;;;;18.00;8.37;;;;;;;-5.85;100.00;102759.91;2077073;28;20205;-75
2024/01/11 00:11:17;;;;;;;15.23;8.30;;;;;;;-4.85;100.00;102921.06;2076928;28;20237;-75
2024/01/11 00:12:18;;;;;;;16.30;8.00;;;;;;;-5.39;100.00;102831.66;2078951;28;20712;-75
2024/01/11 00:13:18;;;;;;;14.70;7.43;;;;;;;-4.77;100.00;102923.22;2075891;28;20209;-76
2024/01/11 00:14:19;;;;;;;15.10;7.77;;;;;;;-4.88;100.00;102892.66;2077503;28;20673;-75
2024/01/11 00:15:19;;;;;;;13.13;7.13;;;;;;;-4.74;100.00;102915.34;2077616;28;20529;-75
2024/01/11 00:16:20;;;;;;;16.20;6.83;;;;;;;-5.68;100.00;102763.13;2077666;28;20200;-75
2024/01/11 00:17:20;;;;;;;13.50;7.40;;;;;;;-4.88;100.00;102887.25;2077202;28;20185;-75
2024/01/11 00:18:21;;;;;;;13.40;7.50;;;;;;;-5.20;100.00;102835.44;2079262;28;20270;-75
2024/01/11 00:19:21;;;;;;;11.53;7.60;;;;;;;-5.78;100.00;102743.41;2077160;28;20193;-75
2024/01/11 00:20:22;;;;;;;15.37;8.03;;;;;;;-4.68;100.00;102910.72;2078049;28;20235;-75
2024/01/11 00:21:22;;;;;;;20.93;8.27;;;;;;;-5.34;100.00;102804.63;2076726;28;20208;-75
2024/01/11 00:22:23;;;;;;;15.63;7.93;;;;;;;-5.28;100.00;102805.44;2077370;28;20333;-76
2024/01/11 00:23:23;;;;;;;16.03;8.57;;;;;;;-4.88;100.00;102864.81;2077589;28;20178;-75
2024/01/11 00:24:24;;;;;;;14.07;8.33;;;;;;;-4.58;100.00;102907.97;2079848;28;20189;-75
2024/01/11 00:25:24;;;;;;;15.40;7.73;;;;;;;-5.21;100.00;102803.25;2077960;28;20675;-75
2024/01/11 00:26:25;;;;;;;16.60;8.33;;;;;;;-4.47;100.00;102913.09;2077495;28;20647;-75
2024/01/11 00:27:25;;;;;;;18.47;10.50;;;;;;;-4.90;100.00;102842.63;2078202;28;20194;-76
2024/01/11 00:28:26;;;;;;;18.00;9.50;;;;;;;-4.56;100.00;102895.81;2077726;28;20204;-75
2024/01/11 00:29:26;;;;;;;13.83;8.30;;;;;;;-5.81;100.00;102701.59;2077626;28;20491;-75
2024/01/11 00:30:27;;;;;;;16.87;9.93;;;;;;;-4.42;100.00;102912.28;2079259;28;20189;-75
2024/01/11 00:31:27;;;;;;;16.73;9.03;;;;;;;-4.42;100.00;102912.28;2076942;28;20293;-75
2024/01/11 00:32:28;;;;;;;14.43;8.67;;;;;;;-4.43;100.00;102916.88;2077047;28;20225;-75
2024/01/11 00:33:28;;;;;;;16.80;8.80;;;;;;;-4.44;100.00;102912.56;2076919;28;20192;-75
2024/01/11 00:34:29;;;;;;;13.20;8.13;;;;;;;-4.56;100.00;102908.53;2077847;28;20827;-75
2024/01/11 00:35:29;;;;;;;14.07;7.43;;;;;;;-4.57;100.00;102910.41;2077272;28;20640;-75
2024/01/11 00:36:30;;;;;;;11.27;7.67;;;;;;;-4.53;100.00;102913.38;2079262;28;20636;-75
2024/01/11 00:37:30;;;;;;;12.40;7.70;;;;;;;-4.64;100.00;102909.91;2077063;28;20665;-75
2024/01/11 00:38:31;;;;;;;12.57;7.27;;;;;;;-4.71;100.00;102916.69;2077197;28;20202;-75
2024/01/11 00:39:31;;;;;;;12.77;6.73;;;;;;;-4.71;100.00;102914.81;2077156;28;20592;-75
2024/01/11 00:40:32;;;;;;;13.57;8.27;;;;;;;-4.66;100.00;102913.97;2076202;28;20717;-75
2024/01/11 00:41:32;;;;;;;9.30;6.17;;;;;;;-4.66;100.00;102912.06;2076930;28;20194;-75
2024/01/11 00:42:34;;;;;;;11.40;6.03;;;;;;;-4.65;100.00;102907.47;2078264;28;20295;-75
2024/01/11 00:43:35;;;;;;;12.57;6.97;;;;;;;-5.10;100.00;102827.28;2076521;28;20201;-75
2024/01/11 00:44:35;;;;;;;12.70;6.70;;;;;;;-4.61;100.00;102908.56;2077245;28;20202;-75
2024/01/11 00:45:36;;;;;;;14.57;8.20;;;;;;;-4.62;100.00;102907.72;2077431;28;20217;-76
2024/01/11 00:46:38;;;;;;;15.10;8.60;;;;;;;-4.62;100.00;102912.34;2077622;28;20259;-75
2024/01/11 00:47:38;;;;;;;15.15;8.55;;;;;;;-5.58;100.00;102778.50;2076096;28;20323;-75
2024/01/11 00:48:39;;;;;;;16.77;9.33;;;;;;;-4.77;100.00;102882.63;2078908;28;20245;-75
2024/01/11 00:49:39;;;;;;;15.93;8.67;;;;;;;-4.64;100.00;102909.91;2077987;28;20198;-75
2024/01/11 00:50:40;;;;;;;16.23;8.80;;;;;;;-4.66;100.00;102911.28;2076995;28;20201;-75
2024/01/11 00:51:40;;;;;;;11.40;7.50;;;;;;;-4.84;100.00;102874.81;2077948;28;20201;-75
2024/01/11 00:52:41;;;;;;;12.97;6.93;;;;;;;-4.65;100.00;102899.38;2077722;28;20312;-75
2024/01/11 00:53:41;;;;;;;16.40;8.70;;;;;;;-4.67;100.00;102905.03;2075622;28;20275;-75
2024/01/11 00:54:42;;;;;;;13.00;7.10;;;;;;;-4.69;100.00;102901.81;2079488;28;20675;-75
2024/01/11 00:55:43;;;;;;;10.17;6.93;;;;;;;-4.70;100.00;102899.38;2078005;28;20197;-75
2024/01/11 00:56:43;;;;;;;15.10;7.40;;;;;;;-5.94;100.00;102709.44;2077373;28;20570;-75
2024/01/11 00:57:44;;;;;;;11.80;6.73;;;;;;;-4.69;100.00;102895.59;2077277;28;20231;-75
2024/01/11 00:58:45;;;;;;;9.77;5.90;;;;;;;-4.73;100.00;102899.94;2077408;28;20209;-75
2024/01/11 00:59:45;;;;;;;10.07;5.82;;;;;;;-4.73;100.00;102903.44;2077698;28;20226;-75
2024/01/11 01:00:46;;;;;;;11.20;6.87;;;;;;;-4.75;100.00;102897.50;2078963;28;20724;-75
2024/01/11 01:01:50;;;;;;;10.90;6.67;;;;;;;-4.76;100.00;102895.91;2078450;28;20290;-75
2024/01/11 01:02:50;;;;;;;12.80;7.10;;;;;;;-4.75;100.00;102896.69;2076640;28;20193;-75
2024/01/11 01:03:51;;;;;;;10.13;6.00;;;;;;;-4.86;100.00;102876.16;2076693;28;20192;-75
2024/01/11 01:04:51;;;;;;;11.53;6.10;;;;;;;-4.79;100.00;102872.09;2077023;28;20207;-75
2024/01/11 01:05:52;;;;;;;14.03;6.33;;;;;;;-4.93;100.00;102860.22;2077611;28;20208;-75
2024/01/11 01:06:52;;;;;;;13.33;6.13;;;;;;;-4.80;100.00;102873.19;2077653;28;20188;-75
2024/01/11 01:07:53;;;;;;;9.20;5.73;;;;;;;-4.74;100.00;102891.00;2079154;28;20653;-75
2024/01/11 01:08:55;;;;;;;11.70;5.87;;;;;;;-4.77;100.00;102879.94;2076167;28;20199;-75
2024/01/11 01:09:55;;;;;;;11.43;6.20;;;;;;;-4.74;100.00;102880.19;2068550;28;20203;-75
2024/01/11 01:10:56;;;;;;;10.53;5.70;;;;;;;-4.74;100.00;102888.31;2076488;28;20206;-75
2024/01/11 01:11:56;;;;;;;8.80;5.50;;;;;;;-5.37;100.00;102783.59;2077384;28;20189;-75
2024/01/11 01:12:57;;;;;;;11.63;6.33;;;;;;;-4.78;100.00;102889.13;2076812;28;20231;-75
2024/01/11 01:13:58;;;;;;;10.80;6.80;;;;;;;-4.79;100.00;102880.19;2079499;28;20196;-75
2024/01/11 01:14:58;;;;;;;13.13;5.83;;;;;;;-4.83;100.00;102875.63;2075867;28;20197;-75
2024/01/11 01:15:59;;;;;;;9.47;5.53;;;;;;;-5.49;100.00;102776.84;2077791;28;20450;-75
2024/01/11 01:16:59;;;;;;;11.43;5.97;;;;;;;-4.95;100.00;102873.22;2076505;28;20214;-75
2024/01/11 01:18:00;;;;;;;10.33;5.87;;;;;;;-5.00;100.00;102875.94;2077058;28;20182;-75
2024/01/11 01:19:00;;;;;;;12.27;6.23;;;;;;;-5.07;100.00;102867.28;2077356;28;20189;-75
2024/01/11 01:20:01;;;;;;;10.17;6.20;;;;;;;-6.04;100.00;102728.34;2078734;28;20178;-75
2024/01/11 01:21:01;;;;;;;11.80;6.67;;;;;;;-5.14;100.00;102871.38;2076681;28;20682;-75
2024/01/11 01:22:02;;;;;;;13.10;7.10;;;;;;;-5.20;100.00;102869.75;2076733;28;20644;-76
2024/01/11 01:23:03;;;;;;;13.07;7.13;;;;;;;-6.22;100.00;102721.59;2076238;28;20219;-75
2024/01/11 01:24:03;;;;;;;15.03;6.80;;;;;;;-5.29;100.00;102874.09;2077785;28;20194;-75
2024/01/11 01:25:22;;;;;;;14.87;6.93;;;;;;;-5.34;100.00;102879.50;2076577;28;20181;-75
2024/01/11 01:26:23;;;;;;;13.98;6.85;;;;;;;-5.39;100.00;102866.00;2077215;28;20284;-75
2024/01/11 01:27:24;;;;;;;16.03;7.17;;;;;;;-5.46;100.00;102854.66;2078339;28;20203;-75
2024/01/11 01:28:24;;;;;;;14.75;6.97;;;;;;;-5.41;100.00;102868.97;2078920;28;20565;-75
2024/01/11 01:29:25;;;;;;;16.37;7.83;;;;;;;-5.42;100.00;102867.38;2077701;28;20232;-75
2024/01/11 01:30:26;;;;;;;14.50;7.23;;;;;;;-5.43;100.00;102864.94;2075230;28;20193;-75
2024/01/11 01:31:26;;;;;;;11.23;7.50;;;;;;;-5.41;100.00;102881.66;2077490;28;20189;-75
2024/01/11 01:32:27;;;;;;;12.07;6.00;;;;;;;-5.39;100.00;102863.31;2077343;28;20754;-75
2024/01/11 01:33:27;;;;;;;11.07;7.00;;;;;;;-5.38;100.00;102864.91;2077666;28;20701;-75
2024/01/11 01:34:28;;;;;;;11.63;7.00;;;;;;;-5.35;100.00;102864.34;2078796;28;20265;-76
2024/01/11 01:35:28;;;;;;;14.33;7.23;;;;;;;-5.33;100.00;102860.31;2077279;28;20271;-75
2024/01/11 01:36:29;;;;;;;13.20;6.60;;;;;;;-5.31;100.00;102851.94;2076181;28;20189;-75
2024/01/11 01:37:29;;;;;;;11.87;6.87;;;;;;;-5.27;100.00;102851.13;2077526;28;20212;-76
2024/01/11 01:38:30;;;;;;;14.43;6.80;;;;;;;-5.23;100.00;102859.50;2077471;28;20736;-75
2024/01/11 01:39:30;;;;;;;12.80;6.37;;;;;;;-5.23;100.00;102852.19;2077981;28;20232;-75
2024/01/11 01:40:33;;;;;;;11.97;6.20;;;;;;;-5.57;100.00;102796.31;2077366;28;20210;-75
2024/01/11 01:41:34;;;;;;;13.77;6.53;;;;;;;-5.26;100.00;102843.81;2076393;28;20202;-75
2024/01/11 01:42:34;;;;;;;10.80;5.53;;;;;;;-5.28;100.00;102841.38;2077615;28;20295;-75
2024/01/11 01:43:35;;;;;;;11.80;5.67;;;;;;;-5.31;100.00;102838.41;2077087;28;20220;-75
2024/01/11 01:44:35;;;;;;;10.67;5.87;;;;;;;-5.98;100.00;102740.75;2076155;28;20202;-75
2024/01/11 01:45:36;;;;;;;8.60;5.17;;;;;;;-5.35;100.00;102837.34;2076593;28;20215;-75
2024/01/11 01:46:37;;;;;;;9.87;5.00;;;;;;;-5.44;100.00;102850.59;2077760;28;20186;-75
2024/01/11 01:47:39;;;;;;;10.73;4.85;;;;;;;-5.60;100.00;102821.19;2077351;28;20577;-75
2024/01/11 01:48:40;;;;;;;10.43;6.22;;;;;;;-5.73;100.00;102819.00;2077169;28;20727;-75
2024/01/11 01:49:42;;;;;;;9.70;4.93;;;;;;;-5.47;100.00;102845.75;2078076;28;20555;-75
2024/01/11 01:50:50;;;;;;;11.02;5.47;;;;;;;-5.46;100.00;102844.66;2077120;28;20198;-75
2024/01/11 01:51:52;;;;;;;13.27;6.05;;;;;;;-5.43;100.00;102837.91;2077053;28;20197;-75
2024/01/11 01:52:54;;;;;;;8.75;5.82;;;;;;;-5.50;100.00;102840.06;2077305;28;20184;-75
2024/01/11 01:53:57;;;;;;;11.15;5.35;;;;;;;-6.39;100.00;102721.06;2080934;28;20191;-75
2024/01/11 01:54:58;;;;;;;8.93;5.88;;;;;;;-5.60;100.00;102843.59;2079141;28;20241;-75
2024/01/11 01:55:59;;;;;;;11.93;6.05;;;;;;;-5.58;100.00;102836.03;2079282;28;20201;-75
2024/01/11 01:57:01;;;;;;;10.67;5.93;;;;;;;-6.72;100.00;102656.03;2078126;28;20217;-75
2024/01/11 01:58:03;;;;;;;12.32;5.50;;;;;;;-5.59;100.00;102839.78;2078758;28;20188;-75
2024/01/11 01:59:04;;;;;;;12.77;6.05;;;;;;;-5.56;100.00;102833.03;2079102;28;20628;-75
2024/01/11 02:00:06;;;;;;;10.45;5.32;;;;;;;-5.55;100.00;102842.78;2078763;28;20276;-75
2024/01/11 02:01:06;;;;;;;11.60;5.85;;;;;;;-5.52;100.00;102836.81;2079991;28;20232;-76
2024/01/11 02:02:07;;;;;;;10.40;5.17;;;;;;;-5.44;100.00;102830.88;2077855;28;20200;-75
2024/01/11 02:03:08;;;;;;;11.80;5.32;;;;;;;-5.61;100.00;102804.16;2078665;28;20252;-75
2024/01/11 02:04:10;;;;;;;9.68;5.53;;;;;;;-5.36;100.00;102831.13;2079053;28;20201;-75
2024/01/11 02:05:12;;;;;;;10.65;5.88;;;;;;;-5.30;100.00;102834.63;2078847;28;20232;-75
2024/01/11 02:06:14;;;;;;;9.00;5.28;;;;;;;-5.30;100.00;102829.22;2078805;28;20190;-75
2024/01/11 02:07:15;;;;;;;7.32;5.00;;;;;;;-6.00;100.00;102710.53;2080476;28;20235;-75
2024/01/11 02:08:19;;;;;;;9.27;5.05;;;;;;;-5.37;100.00;102829.53;2078412;28;20199;-75
2024/01/11 02:09:19;;;;;;;10.52;6.07;;;;;;;-5.34;100.00;102822.78;2079267;28;20284;-75
2024/01/11 02:10:22;;;;;;;10.77;5.67;;;;;;;-5.43;100.00;102806.28;2078971;28;20300;-75
2024/01/11 02:11:24;;;;;;;10.52;5.95;;;;;;;-5.29;100.00;102828.16;2077905;28;20575;-75
2024/01/11 02:12:26;;;;;;;11.38;5.85;;;;;;;-5.25;100.00;102824.63;2077787;28;20193;-75
2024/01/11 02:13:26;;;;;;;12.75;6.35;;;;;;;-5.26;100.00;102820.31;2078233;28;20182;-75
2024/01/11 02:14:27;;;;;;;11.73;6.17;;;;;;;-5.33;100.00;102817.06;2080745;28;20301;-75
2024/01/11 02:15:27;;;;;;;11.27;5.47;;;;;;;-5.34;100.00;102817.38;2078978;28;20872;-75
2024/01/11 02:16:28;;;;;;;10.07;5.87;;;;;;;-5.34;100.00;102822.78;2078867;28;20208;-75
2024/01/11 02:17:28;;;;;;;17.30;6.43;;;;;;;-5.32;100.00;102810.59;2078412;28;20201;-75
2024/01/11 02:18:29;;;;;;;18.23;7.27;;;;;;;-5.49;100.00;102790.38;2078058;28;20183;-75
2024/01/11 02:19:29;;;;;;;16.70;7.07;;;;;;;-5.39;100.00;102814.66;2078375;28;21526;-75
2024/01/11 02:20:31;;;;;;;21.03;8.10;;;;;;;-5.80;100.00;102759.91;2080268;28;20235;-75
2024/01/11 02:21:33;;;;;;;14.27;7.45;;;;;;;-6.11;100.00;102698.13;2079119;28;20711;-75
2024/01/11 02:22:40;;;;;;;20.90;8.63;;;;;;;-5.68;100.00;102748.78;2078981;28;20194;-75
2024/01/11 02:23:46;;;;;;;23.75;9.13;;;;;;;-5.18;100.00;102814.31;2077594;28;20422;-75
2024/01/11 02:24:46;;;;;;;20.73;8.52;;;;;;;-5.09;100.00;102814.56;2078135;28;20222;-75
2024/01/11 02:25:47;;;;;;;17.67;8.10;;;;;;;-5.02;100.00;102815.91;2077628;28;20675;-75
2024/01/11 02:27:04;;;;;;;19.77;8.47;;;;;;;-4.91;100.00;102803.16;2078485;28;20202;-75
2024/01/11 02:28:05;;;;;;;24.45;9.45;;;;;;;-6.23;100.00;102603.13;2077474;28;20191;-75
2024/01/11 02:29:06;;;;;;;19.23;8.87;;;;;;;-4.98;100.00;102770.22;2078475;28;20205;-75
2024/01/11 02:30:06;;;;;;;19.47;8.90;;;;;;;-4.88;100.00;102781.78;2079370;28;20225;-75
2024/01/11 02:31:07;;;;;;;29.08;10.93;;;;;;;-5.73;100.00;102638.06;2078640;28;20252;-75
2024/01/11 02:32:08;;;;;;;22.60;9.53;;;;;;;-4.66;100.00;102805.75;2078156;28;20280;-75
2024/01/11 02:33:09;;;;;;;22.70;9.50;;;;;;;-4.59;100.00;102806.25;2077638;28;20658;-75
2024/01/11 02:34:10;;;;;;;25.67;10.57;;;;;;;-4.70;100.00;102781.16;2077236;28;20179;-76
2024/01/11 02:35:11;;;;;;;29.45;11.65;;;;;;;-4.50;100.00;102805.41;2078382;28;20325;-75
2024/01/11 02:36:13;;;;;;;22.23;9.87;;;;;;;-4.48;100.00;102805.94;2080495;28;20187;-75
2024/01/11 02:37:13;;;;;;;27.77;11.85;;;;;;;-4.41;100.00;102806.41;2079053;28;20182;-75
2024/01/11 02:38:14;;;;;;;26.83;10.23;;;;;;;-5.00;100.00;102718.28;2078705;28;20187;-75
2024/01/11 02:39:17;;;;;;;28.17;11.15;;;;;;;-4.42;100.00;102804.03;2077904;28;20573;-75
2024/01/11 02:40:19;;;;;;;27.60;11.68;;;;;;;-4.36;100.00;102803.69;2077146;28;20282;-75
2024/01/11 02:41:20;;;;;;;36.20;11.60;;;;;;;-4.54;100.00;102790.00;2077604;28;20175;-75
2024/01/11 02:42:21;;;;;;;31.77;13.35;;;;;;;-4.25;100.00;102802.53;2071627;28;20205;-75
2024/01/11 02:43:21;;;;;;;32.33;13.10;;;;;;;-4.16;100.00;102802.78;2077862;28;20207;-75
2024/01/11 02:44:22;;;;;;;28.23;12.43;;;;;;;-4.09;100.00;102801.38;2078586;28;20625;-75
2024/01/11 02:45:22;;;;;;;30.30;14.47;;;;;;;-4.65;100.00;102697.28;2077833;28;20606;-75
2024/01/11 02:46:23;;;;;;;31.17;14.40;;;;;;;-4.05;100.00;102783.44;2078228;28;20239;-75
2024/01/11 02:47:23;;;;;;;32.73;16.73;;;;;;;-3.92;100.00;102793.63;2078788;28;20197;-75
2024/01/11 02:48:30;;;;;;;33.40;15.43;;;;;;;-3.97;100.00;102790.16;2080374;28;20634;-75
2024/01/11 02:49:30;;;;;;;32.30;16.13;;;;;;;-3.96;100.00;102787.16;2079514;28;20176;-75
2024/01/11 02:50:32;;;;;;;27.50;14.93;;;;;;;-3.99;100.00;102784.22;2077569;28;20200;-75
2024/01/11 02:51:33;;;;;;;32.60;14.77;;;;;;;-3.93;100.00;102793.91;2078411;28;20241;-75
2024/01/11 02:52:34;;;;;;;25.90;14.57;;;;;;;-3.96;100.00;102786.38;2078914;28;20258;-75
2024/01/11 02:53:34;;;;;;;34.47;14.00;;;;;;;-4.21;100.00;102737.81;2078140;28;20181;-75
2024/01/11 02:54:35;;;;;;;33.63;15.27;;;;;;;-3.84;100.00;102790.34;2077296;28;20716;-75
2024/01/11 02:55:35;;;;;;;31.53;14.40;;;;;;;-3.75;100.00;102785.91;2079451;28;20215;-75
2024/01/11 02:56:36;;;;;;;28.17;15.27;;;;;;;-3.70;100.00;102787.78;2077912;28;20195;-75
2024/01/11 02:57:36;;;;;;;30.33;16.10;;;;;;;-3.68;100.00;102785.56;2069720;28;20447;-75
2024/01/11 02:58:37;;;;;;;29.67;15.47;;;;;;;-3.72;100.00;102781.81;2078087;28;20787;-75
2024/01/11 02:59:37;;;;;;;34.47;14.67;;;;;;;-3.79;100.00;102779.41;2077975;28;20610;-75
2024/01/11 03:00:38;;;;;;;30.60;14.13;;;;;;;-4.36;100.00;102686.50;2077519;28;20807;-75
2024/01/11 03:01:38;;;;;;;27.50;13.77;;;;;;;-3.78;100.00;102766.69;2079388;28;20867;-75
2024/01/11 03:02:39;;;;;;;28.03;14.93;;;;;;;-3.67;100.00;102769.03;2078266;28;20677;-75
2024/01/11 03:03:39;;;;;;;26.67;13.60;;;;;;;-3.64;100.00;102779.28;2077514;28;20653;-75
2024/01/11 03:04:40;;;;;;;25.10;14.43;;;;;;;-3.65;100.00;102772.25;2078689;28;20668;-75
2024/01/11 03:05:40;;;;;;;24.20;13.67;;;;;;;-3.77;100.00;102746.63;2077078;28;20206;-75
2024/01/11 03:06:41;;;;;;;27.60;13.43;;;;;;;-4.12;100.00;102679.25;2077823;28;20185;-75
2024/01/11 03:07:41;;;;;;;28.33;13.93;;;;;;;-3.56;100.00;102772.44;2080122;28;20225;-75
2024/01/11 03:08:42;;;;;;;27.13;14.50;;;;;;;-3.53;100.00;102769.16;2077861;28;20685;-75
2024/01/11 03:09:42;;;;;;;31.03;13.97;;;;;;;-3.56;100.00;102770.56;2078039;28;20241;-75
2024/01/11 03:10:43;;;;;;;26.43;13.70;;;;;;;-3.57;100.00;102770.84;2077620;28;20644;-75
2024/01/11 03:11:43;;;;;;;24.50;12.73;;;;;;;-4.16;100.00;102689.06;2076589;28;20183;-75
2024/01/11 03:12:44;;;;;;;25.20;12.73;;;;;;;-3.53;100.00;102766.47;2077707;28;20181;-75
2024/01/11 03:13:44;;;;;;;22.90;12.43;;;;;;;-3.55;100.00;102764.03;2079778;28;20406;-75
2024/01/11 03:14:45;;;;;;;26.27;13.57;;;;;;;-3.55;100.00;102761.31;2078158;28;20302;-75
2024/01/11 03:15:46;;;;;;;25.27;12.30;;;;;;;-3.51;100.00;102761.56;2077948;28;20191;-75
2024/01/11 03:16:46;;;;;;;25.23;13.17;;;;;;;-3.51;100.00;102764.25;2077519;28;20197;-75
2024/01/11 03:17:47;;;;;;;25.10;12.83;;;;;;;-3.51;100.00;102766.97;2078476;28;20295;-76
2024/01/11 03:18:47;;;;;;;29.50;13.13;;;;;;;-3.51;100.00;102767.78;2078455;28;20191;-75
2024/01/11 03:19:48;;;;;;;27.70;12.87;;;;;;;-3.85;100.00;102720.19;2080092;28;20181;-75
2024/01/11 03:20:48;;;;;;;21.40;12.10;;;;;;;-3.54;100.00;102770.28;2077015;28;20195;-75
2024/01/11 03:21:49;;;;;;;23.63;12.77;;;;;;;-3.56;100.00;102759.72;2077806;28;20285;-75
2024/01/11 03:22:49;;;;;;;26.03;12.97;;;;;;;-3.56;100.00;102762.41;2077196;28;20529;-75
2024/01/11 03:23:50;;;;;;;22.10;11.93;;;;;;;-3.65;100.00;102753.28;2078134;28;20175;-75
2024/01/11 03:24:50;;;;;;;19.57;11.40;;;;;;;-3.64;100.00;102760.31;2078354;28;20565;-75
2024/01/11 03:25:51;;;;;;;23.80;12.43;;;;;;;-4.16;100.00;102679.00;2080248;28;20203;-76
2024/01/11 03:26:51;;;;;;;25.23;13.33;;;;;;;-3.69;100.00;102749.53;2077394;28;20220;-75
2024/01/11 03:27:52;;;;;;;28.67;12.70;;;;;;;-4.53;100.00;102626.56;2077480;28;20648;-75
2024/01/11 03:28:52;;;;;;;31.33;14.17;;;;;;;-3.80;100.00;102756.13;2078173;28;20217;-76
2024/01/11 03:29:53;;;;;;;26.97;12.73;;;;;;;-4.89;100.00;102582.75;2078853;28;20684;-75
2024/01/11 03:30:53;;;;;;;28.73;14.33;;;;;;;-4.30;100.00;102677.25;2077379;28;20244;-75
2024/01/11 03:31:54;;;;;;;32.67;14.53;;;;;;;-4.05;100.00;102731.19;2079316;28;20176;-76
2024/01/11 03:32:54;;;;;;;34.77;15.27;;;;;;;-3.95;100.00;102736.53;2077678;28;20191;-75
2024/01/11 03:33:55;;;;;;;28.07;14.87;;;;;;;-4.18;100.00;102718.28;2078123;28;20230;-75
2024/01/11 03:34:55;;;;;;;31.40;13.43;;;;;;;-4.82;100.00;102620.31;2078201;28;20728;-75
2024/01/11 03:35:56;;;;;;;30.30;14.33;;;;;;;-4.81;100.00;102644.38;2077819;28;20199;-75
2024/01/11 03:36:56;;;;;;;28.97;14.03;;;;;;;-4.25;100.00;102715.09;2078270;28;20210;-75
2024/01/11 03:37:57;;;;;;;33.47;14.37;;;;;;;-4.27;100.00;102723.50;2078983;28;20186;-75
2024/01/11 03:38:57;;;;;;;32.63;16.10;;;;;;;-4.19;100.00;102749.16;2077696;28;20192;-76
2024/01/11 03:39:58;;;;;;;32.33;13.73;;;;;;;-4.19;100.00;102741.03;2077617;28;20191;-75
2024/01/11 03:40:59;;;;;;;37.33;15.95;;;;;;;-4.29;100.00;102738.41;2077236;28;20198;-75
2024/01/11 03:41:59;;;;;;;31.07;13.47;;;;;;;-4.62;100.00;102709.44;2077701;28;20214;-76
2024/01/11 03:43:00;;;;;;;34.50;15.10;;;;;;;-4.35;100.00;102736.84;2077521;28;20674;-75
2024/01/11 03:44:00;;;;;;;32.67;13.93;;;;;;;-4.40;100.00;102731.47;2079380;28;20567;-75
2024/01/11 03:45:01;;;;;;;32.70;13.53;;;;;;;-4.57;100.00;102712.91;2076601;28;20686;-75
2024/01/11 03:46:02;;;;;;;32.93;14.20;;;;;;;-4.51;100.00;102716.38;2076609;28;20241;-75
2024/01/11 03:47:02;;;;;;;34.30;14.70;;;;;;;-4.43;100.00;102732.00;2078326;28;20188;-75
2024/01/11 03:48:03;;;;;;;36.23;14.43;;;;;;;-4.45;100.00;102728.78;2078162;28;20708;-75
2024/01/11 03:49:04;;;;;;;39.43;15.77;;;;;;;-4.58;100.00;102722.09;2077469;28;20314;-76
2024/01/11 03:50:05;;;;;;;34.53;15.30;;;;;;;-4.62;100.00;102723.75;2079503;28;20564;-75
2024/01/11 03:51:06;;;;;;;29.43;13.90;;;;;;;-4.62;100.00;102733.78;2078352;28;20198;-75
2024/01/11 03:52:07;;;;;;;28.05;14.23;;;;;;;-4.70;100.00;102729.78;2077211;28;20341;-76
2024/01/11 03:53:07;;;;;;;32.17;15.07;;;;;;;-4.76;100.00;102736.31;2077285;28;20197;-75
2024/01/11 03:54:08;;;;;;;27.60;13.53;;;;;;;-4.97;100.00;102707.72;2077582;28;20327;-75
2024/01/11 03:55:09;;;;;;;34.53;13.53;;;;;;;-4.85;100.00;102731.72;2077487;28;20954;-75
2024/01/11 03:56:10;;;;;;;28.37;14.10;;;;;;;-4.97;100.00;102734.75;2079973;28;20545;-75
2024/01/11 03:57:10;;;;;;;27.65;13.27;;;;;;;-5.11;100.00;102722.94;2077504;28;20188;-76
2024/01/11 03:58:11;;;;;;;25.63;13.40;;;;;;;-5.87;100.00;102607.34;2078258;28;20199;-75
2024/01/11 03:59:11;;;;;;;25.67;13.13;;;;;;;-5.19;100.00;102720.03;2077535;28;20266;-75
2024/01/11 04:00:12;;;;;;;27.90;13.93;;;;;;;-6.22;100.00;102570.47;2077485;28;20264;-75
2024/01/11 04:01:13;;;;;;;33.50;12.07;;;;;;;-5.78;100.00;102649.72;2077648;28;20200;-75
2024/01/11 04:02:14;;;;;;;28.23;12.80;;;;;;;-5.42;100.00;102717.94;2080035;28;20181;-76
2024/01/11 04:03:14;;;;;;;25.25;13.77;;;;;;;-5.62;100.00;102715.28;2076135;28;20197;-75
2024/01/11 04:04:15;;;;;;;22.60;12.10;;;;;;;-5.62;100.00;102715.28;2077998;28;20206;-75
2024/01/11 04:05:16;;;;;;;22.73;11.90;;;;;;;-5.53;100.00;102721.75;2077393;28;20201;-75
2024/01/11 04:06:21;;;;;;;33.30;13.70;;;;;;;-5.87;100.00;102666.75;2077994;28;20198;-75
2024/01/11 04:07:21;;;;;;;29.92;13.52;;;;;;;-5.52;100.00;102724.19;2077931;28;20187;-75
2024/01/11 04:08:22;;;;;;;25.27;12.27;;;;;;;-5.49;100.00;102720.91;2077838;28;20185;-75
2024/01/11 04:09:22;;;;;;;29.47;14.17;;;;;;;-5.51;100.00;102714.97;2086724;28;20241;-76
2024/01/11 04:10:23;;;;;;;27.73;14.40;;;;;;;-5.53;100.00;102713.66;2083817;28;20727;-75
2024/01/11 04:11:27;;;;;;;27.80;13.70;;;;;;;-5.58;100.00;102702.84;2077907;28;20291;-75
2024/01/11 04:12:28;;;;;;;25.50;14.00;;;;;;;-5.54;100.00;102726.31;2078191;28;20621;-75
2024/01/11 04:13:28;;;;;;;23.20;12.90;;;;;;;-5.58;100.00;102709.06;2077151;28;20234;-75
2024/01/11 04:14:29;;;;;;;24.03;13.03;;;;;;;-5.49;100.00;102714.72;2077925;28;20191;-75
2024/01/11 04:15:29;;;;;;;25.47;12.93;;;;;;;-5.48;100.00;102713.63;2078989;28;20180;-75
2024/01/11 04:16:30;;;;;;;25.83;13.40;;;;;;;-5.48;100.00;102710.94;2077700;28;20213;-75
2024/01/11 04:17:30;;;;;;;27.03;13.43;;;;;;;-5.52;100.00;102709.84;2077416;28;20272;-76
2024/01/11 04:18:31;;;;;;;25.17;13.07;;;;;;;-5.46;100.00;102714.16;2078271;28;20285;-75
2024/01/11 04:19:31;;;;;;;20.67;12.53;;;;;;;-5.43;100.00;102719.00;2077609;28;20632;-75
2024/01/11 04:20:32;;;;;;;21.50;12.70;;;;;;;-5.57;100.00;102691.78;2077073;28;20586;-75
2024/01/11 04:21:32;;;;;;;24.00;13.43;;;;;;;-5.39;100.00;102709.28;2078722;28;20202;-75
2024/01/11 04:22:33;;;;;;;22.83;12.00;;;;;;;-5.35;100.00;102713.03;2077217;28;20660;-75
2024/01/11 04:23:33;;;;;;;22.50;12.20;;;;;;;-5.34;100.00;102714.66;2077288;28;20253;-76
2024/01/11 04:24:34;;;;;;;23.23;12.53;;;;;;;-5.31;100.00;102709.53;2077590;28;20186;-75
2024/01/11 04:25:35;;;;;;;23.53;11.70;;;;;;;-5.36;100.00;102706.00;2078123;28;20797;-75
2024/01/11 04:26:35;;;;;;;25.73;12.83;;;;;;;-5.22;100.00;102710.56;2076436;28;20194;-76
2024/01/11 04:27:36;;;;;;;26.90;12.70;;;;;;;-5.18;100.00;102716.22;2079099;28;20181;-75
2024/01/11 04:28:37;;;;;;;24.60;12.90;;;;;;;-5.15;100.00;102711.06;2077380;28;20577;-75
2024/01/11 04:29:37;;;;;;;25.77;13.47;;;;;;;-5.21;100.00;102693.25;2077615;28;20647;-75
2024/01/11 04:30:38;;;;;;;22.67;12.07;;;;;;;-5.12;100.00;102717.81;2077150;28;20277;-76
2024/01/11 04:31:38;;;;;;;21.03;11.77;;;;;;;-5.15;100.00;102707.53;2076969;28;20240;-75
2024/01/11 04:32:39;;;;;;;20.87;11.57;;;;;;;-5.10;100.00;102710.22;2077920;28;20187;-75
2024/01/11 04:33:46;;;;;;;22.27;11.63;;;;;;;-5.07;100.00;102706.97;2079050;28;20187;-75
2024/01/11 04:34:46;;;;;;;18.67;10.07;;;;;;;-5.06;100.00;102703.19;2077929;28;20182;-75
2024/01/11 04:35:47;;;;;;;20.87;11.83;;;;;;;-5.05;100.00;102704.78;2077078;28;20220;-75